Karval, Colorado
Current Conditions -  °F | °C
As of 10:55 PM on Thursday 27 Nov 2014 (Local Time) from KLIC Reporting Station
Clear Clear  
Wind Chill: 14°   Ceiling: Unl
Heat Index: 24°   Visibility: 10mi
Dew Point: 18°   Wind: 9mph
Humidity: 77%   Direction: 360°N
Pressure: 30.11"   Gusts: NA
Location:  38.73°N, 103.54°W
Report Text: KLIC 280555Z AUTO 36008KT 10SM CLR M04/M08 A3011 RMK AO2 SLP183 T10441078 10067 21044 58007
Loading
Personal Weather Stations






























Interactive Weather Map New forecast layout! Learn more

10-Day Weather Forecast

Advertisements
Track Severe Weather on mobile